TimeCDT,TemperatureF,Dew PointF,Humidity,Sea Level PressureIn,VisibilityMPH,Wind Direction,Wind SpeedMPH,Gust SpeedMPH,PrecipitationIn,Events,Conditions,WindDirDegrees,DateUTC
12:53 AM,42.1,34.0,73,30.12,10.0,ENE,4.6,-,N/A,,Clear,70,2014-04-06 05:53:00
1:53 AM,43.0,34.0,71,30.12,10.0,East,4.6,-,N/A,,Clear,80,2014-04-06 06:53:00
2:53 AM,39.9,35.1,83,30.12,10.0,Calm,Calm,-,N/A,,Clear,0,2014-04-06 07:53:00
3:53 AM,39.9,35.1,83,30.11,10.0,Calm,Calm,-,N/A,,Clear,0,2014-04-06 08:53:00
4:53 AM,39.9,37.0,89,30.11,10.0,Calm,Calm,-,N/A,,Clear,0,2014-04-06 09:53:00
5:53 AM,41.0,36.0,82,30.10,10.0,North,5.8,-,N/A,,Clear,10,2014-04-06 10:53:00
6:53 AM,41.0,36.0,82,30.10,10.0,East,3.5,-,N/A,,Clear,90,2014-04-06 11:53:00
7:53 AM,44.1,37.0,76,30.09,10.0,ENE,6.9,-,N/A,,Clear,70,2014-04-06 12:53:00
8:53 AM,46.0,37.0,71,30.08,10.0,ENE,6.9,-,N/A,,Clear,60,2014-04-06 13:53:00
9:53 AM,52.0,36.0,54,30.06,10.0,East,8.1,-,N/A,,Clear,80,2014-04-06 14:53:00
10:53 AM,55.0,35.1,47,30.05,10.0,ESE,5.8,-,N/A,,Clear,120,2014-04-06 15:53:00
11:53 AM,57.9,34.0,41,30.01,10.0,ENE,10.4,-,N/A,,Clear,60,2014-04-06 16:53:00
12:53 PM,60.1,35.1,39,29.99,10.0,Variable,5.8,-,N/A,,Clear,0,2014-04-06 17:53:00
1:53 PM,61.0,35.1,38,29.98,10.0,NE,4.6,-,N/A,,Clear,40,2014-04-06 18:53:00
2:53 PM,60.1,36.0,41,29.96,10.0,SE,9.2,-,N/A,,Clear,140,2014-04-06 19:53:00
3:53 PM,59.0,35.1,41,29.93,10.0,SSE,6.9,-,N/A,,Clear,150,2014-04-06 20:53:00
4:53 PM,59.0,37.9,46,29.90,10.0,SE,3.5,-,N/A,,Clear,140,2014-04-06 21:53:00
5:53 PM,57.9,36.0,44,29.89,10.0,East,5.8,-,N/A,,Clear,90,2014-04-06 22:53:00
6:53 PM,57.0,39.9,53,29.89,10.0,ESE,3.5,-,N/A,,Clear,110,2014-04-06 23:53:00
7:53 PM,55.9,39.0,53,29.89,10.0,Calm,Calm,-,N/A,,Overcast,0,2014-04-07 00:53:00
8:53 PM,54.0,45.0,72,29.87,10.0,NE,6.9,-,N/A,,Scattered Clouds,50,2014-04-07 01:53:00
9:53 PM,54.0,39.0,57,29.87,10.0,NE,9.2,-,N/A,,Mostly Cloudy,40,2014-04-07 02:53:00
10:53 PM,54.0,39.0,57,29.85,10.0,NNE,10.4,-,N/A,,Overcast,30,2014-04-07 03:53:00
11:53 PM,54.0,37.9,55,29.81,10.0,NE,12.7,-,N/A,,Overcast,50,2014-04-07 04:53:00